sensor_id;sensor_type;location;lat;lon;timestamp;temperature;humidity
13231;DHT22;6681;53.254;10.398;2023-04-16T00:00:48;8.10;99.90
13231;DHT22;6681;53.254;10.398;2023-04-16T00:03:14;8.10;99.90
13231;DHT22;6681;53.254;10.398;2023-04-16T00:05:40;8.10;99.90
13231;DHT22;6681;53.254;10.398;2023-04-16T00:08:06;8.00;99.90
13231;DHT22;6681;53.254;10.398;2023-04-16T00:10:33;8.00;99.90
13231;DHT22;6681;53.254;10.398;2023-04-16T00:12:59;8.00;99.90
13231;DHT22;6681;53.254;10.398;2023-04-16T00:15:25;8.00;99.90
13231;DHT22;6681;53.254;10.398;2023-04-16T00:17:50;8.00;99.90
13231;DHT22;6681;53.254;10.398;2023-04-16T00:20:16;8.00;99.90
13231;DHT22;6681;53.254;10.398;2023-04-16T00:22:42;8.00;99.90
13231;DHT22;6681;53.254;10.398;2023-04-16T00:25:08;8.00;99.90
13231;DHT22;6681;53.254;10.398;2023-04-16T00:27:33;8.00;99.90
13231;DHT22;6681;53.254;10.398;2023-04-16T00:29:59;8.00;99.90
13231;DHT22;6681;53.254;10.398;2023-04-16T00:32:25;8.70;99.90
13231;DHT22;6681;53.254;10.398;2023-04-16T00:34:50;8.10;99.90
13231;DHT22;6681;53.254;10.398;2023-04-16T00:37:16;8.10;99.90
13231;DHT22;6681;53.254;10.398;2023-04-16T00:39:41;8.10;99.90
13231;DHT22;6681;53.254;10.398;2023-04-16T00:42:07;8.10;99.90
13231;DHT22;6681;53.254;10.398;2023-04-16T00:44:33;8.10;99.90
13231;DHT22;6681;53.254;10.398;2023-04-16T00:47:02;8.10;99.90
13231;DHT22;6681;53.254;10.398;2023-04-16T00:49:29;8.10;99.90
13231;DHT22;6681;53.254;10.398;2023-04-16T00:51:55;8.10;99.90
13231;DHT22;6681;53.254;10.398;2023-04-16T00:54:21;8.10;99.90
13231;DHT22;6681;53.254;10.398;2023-04-16T00:56:47;8.10;99.90
13231;DHT22;6681;53.254;10.398;2023-04-16T00:59:13;8.20;99.90
13231;DHT22;6681;53.254;10.398;2023-04-16T01:01:39;8.20;99.90
13231;DHT22;6681;53.254;10.398;2023-04-16T01:04:05;8.20;99.90
13231;DHT22;6681;53.254;10.398;2023-04-16T01:06:31;8.20;99.90
13231;DHT22;6681;53.254;10.398;2023-04-16T01:08:57;8.20;99.90
13231;DHT22;6681;53.254;10.398;2023-04-16T01:11:23;8.40;99.90
13231;DHT22;6681;53.254;10.398;2023-04-16T01:13:48;8.40;99.90
13231;DHT22;6681;53.254;10.398;2023-04-16T01:16:14;8.30;99.90
13231;DHT22;6681;53.254;10.398;2023-04-16T01:18:39;8.30;99.90
13231;DHT22;6681;53.254;10.398;2023-04-16T01:21:05;8.30;99.90
13231;DHT22;6681;53.254;10.398;2023-04-16T01:23:31;8.20;99.90
13231;DHT22;6681;53.254;10.398;2023-04-16T01:25:57;8.20;99.90
13231;DHT22;6681;53.254;10.398;2023-04-16T01:28:23;8.20;99.90
13231;DHT22;6681;53.254;10.398;2023-04-16T01:30:48;8.40;99.90
13231;DHT22;6681;53.254;10.398;2023-04-16T01:33:14;8.20;99.90
13231;DHT22;6681;53.254;10.398;2023-04-16T01:35:40;8.50;99.90
13231;DHT22;6681;53.254;10.398;2023-04-16T01:38:07;8.60;99.90
13231;DHT22;6681;53.254;10.398;2023-04-16T01:40:33;8.30;99.90
13231;DHT22;6681;53.254;10.398;2023-04-16T01:42:59;8.20;99.90
13231;DHT22;6681;53.254;10.398;2023-04-16T01:45:25;8.20;99.90
13231;DHT22;6681;53.254;10.398;2023-04-16T01:47:51;8.20;99.90
13231;DHT22;6681;53.254;10.398;2023-04-16T01:50:19;8.20;99.90
13231;DHT22;6681;53.254;10.398;2023-04-16T01:52:44;8.20;99.90
13231;DHT22;6681;53.254;10.398;2023-04-16T01:55:10;8.20;99.90
13231;DHT22;6681;53.254;10.398;2023-04-16T01:57:36;8.30;99.90
13231;DHT22;6681;53.254;10.398;2023-04-16T02:00:03;8.30;99.90
13231;DHT22;6681;53.254;10.398;2023-04-16T02:02:30;8.30;99.90
13231;DHT22;6681;53.254;10.398;2023-04-16T02:04:56;8.60;99.90
13231;DHT22;6681;53.254;10.398;2023-04-16T02:07:23;8.30;99.90
13231;DHT22;6681;53.254;10.398;2023-04-16T02:09:49;8.30;99.90
13231;DHT22;6681;53.254;10.398;2023-04-16T02:12:17;8.30;99.90
13231;DHT22;6681;53.254;10.398;2023-04-16T02:14:43;8.60;99.90
13231;DHT22;6681;53.254;10.398;2023-04-16T02:17:08;8.30;99.90
13231;DHT22;6681;53.254;10.398;2023-04-16T02:19:34;8.30;99.90
13231;DHT22;6681;53.254;10.398;2023-04-16T02:22:00;8.30;99.90
13231;DHT22;6681;53.254;10.398;2023-04-16T02:24:26;8.30;99.90
13231;DHT22;6681;53.254;10.398;2023-04-16T02:26:53;8.30;99.90
13231;DHT22;6681;53.254;10.398;2023-04-16T02:29:18;8.40;99.90
13231;DHT22;6681;53.254;10.398;2023-04-16T02:31:44;8.30;99.90
13231;DHT22;6681;53.254;10.398;2023-04-16T02:34:11;8.30;99.90
13231;DHT22;6681;53.254;10.398;2023-04-16T02:36:37;8.30;99.90
13231;DHT22;6681;53.254;10.398;2023-04-16T02:39:03;8.30;99.90
13231;DHT22;6681;53.254;10.398;2023-04-16T02:41:28;7.20;99.90
13231;DHT22;6681;53.254;10.398;2023-04-16T02:43:54;8.30;99.90
13231;DHT22;6681;53.254;10.398;2023-04-16T02:46:20;8.30;99.90
13231;DHT22;6681;53.254;10.398;2023-04-16T02:48:49;8.20;99.90
13231;DHT22;6681;53.254;10.398;2023-04-16T02:51:15;8.50;99.90
13231;DHT22;6681;53.254;10.398;2023-04-16T02:53:40;8.20;99.90
13231;DHT22;6681;53.254;10.398;2023-04-16T02:56:10;8.20;99.90
13231;DHT22;6681;53.254;10.398;2023-04-16T02:58:36;8.10;99.90
13231;DHT22;6681;53.254;10.398;2023-04-16T03:01:01;8.10;99.90
13231;DHT22;6681;53.254;10.398;2023-04-16T03:03:27;8.10;99.90
13231;DHT22;6681;53.254;10.398;2023-04-16T03:05:52;8.10;99.90
13231;DHT22;6681;53.254;10.398;2023-04-16T03:08:18;8.10;99.90
13231;DHT22;6681;53.254;10.398;2023-04-16T03:10:44;8.10;99.90
13231;DHT22;6681;53.254;10.398;2023-04-16T03:13:10;8.10;99.90
13231;DHT22;6681;53.254;10.398;2023-04-16T03:15:35;8.10;99.90
13231;DHT22;6681;53.254;10.398;2023-04-16T03:18:01;8.10;99.90
13231;DHT22;6681;53.254;10.398;2023-04-16T03:20:26;8.10;99.90
13231;DHT22;6681;53.254;10.398;2023-04-16T03:22:52;8.10;99.90
13231;DHT22;6681;53.254;10.398;2023-04-16T03:25:18;8.10;99.90
13231;DHT22;6681;53.254;10.398;2023-04-16T03:27:44;8.10;99.90
13231;DHT22;6681;53.254;10.398;2023-04-16T03:30:10;8.10;99.90
13231;DHT22;6681;53.254;10.398;2023-04-16T03:32:36;8.10;99.90
13231;DHT22;6681;53.254;10.398;2023-04-16T03:35:03;8.10;99.90
13231;DHT22;6681;53.254;10.398;2023-04-16T03:37:29;8.10;99.90
13231;DHT22;6681;53.254;10.398;2023-04-16T03:39:55;9.00;99.90
13231;DHT22;6681;53.254;10.398;2023-04-16T03:42:20;8.00;99.90
13231;DHT22;6681;53.254;10.398;2023-04-16T03:44:46;8.00;99.90
13231;DHT22;6681;53.254;10.398;2023-04-16T03:47:11;8.00;99.90
13231;DHT22;6681;53.254;10.398;2023-04-16T03:49:37;8.00;99.90
13231;DHT22;6681;53.254;10.398;2023-04-16T03:52:03;8.10;99.90
13231;DHT22;6681;53.254;10.398;2023-04-16T03:54:29;8.00;99.90
13231;DHT22;6681;53.254;10.398;2023-04-16T03:56:54;8.30;99.90
13231;DHT22;6681;53.254;10.398;2023-04-16T03:59:21;8.20;99.90
13231;DHT22;6681;53.254;10.398;2023-04-16T04:01:47;8.00;99.90
13231;DHT22;6681;53.254;10.398;2023-04-16T04:04:12;8.00;99.90
13231;DHT22;6681;53.254;10.398;2023-04-16T04:06:39;8.00;99.90
13231;DHT22;6681;53.254;10.398;2023-04-16T04:09:05;8.10;99.90
13231;DHT22;6681;53.254;10.398;2023-04-16T04:11:31;8.10;99.90
13231;DHT22;6681;53.254;10.398;2023-04-16T04:13:56;8.00;99.90
13231;DHT22;6681;53.254;10.398;2023-04-16T04:16:22;8.00;99.90
13231;DHT22;6681;53.254;10.398;2023-04-16T04:18:48;8.30;99.90
13231;DHT22;6681;53.254;10.398;2023-04-16T04:21:13;8.00;99.90
13231;DHT22;6681;53.254;10.398;2023-04-16T04:23:39;8.20;99.90
13231;DHT22;6681;53.254;10.398;2023-04-16T04:26:06;8.00;99.90
13231;DHT22;6681;53.254;10.398;2023-04-16T04:28:32;8.20;99.90
13231;DHT22;6681;53.254;10.398;2023-04-16T04:30:58;8.30;99.90
13231;DHT22;6681;53.254;10.398;2023-04-16T04:33:24;8.10;99.90
13231;DHT22;6681;53.254;10.398;2023-04-16T04:35:51;8.10;99.90
13231;DHT22;6681;53.254;10.398;2023-04-16T04:38:17;8.10;99.90
13231;DHT22;6681;53.254;10.398;2023-04-16T04:40:50;8.10;99.90
13231;DHT22;6681;53.254;10.398;2023-04-16T04:43:17;8.10;99.90
13231;DHT22;6681;53.254;10.398;2023-04-16T04:45:43;8.10;99.90
13231;DHT22;6681;53.254;10.398;2023-04-16T04:48:08;8.10;99.90
13231;DHT22;6681;53.254;10.398;2023-04-16T04:50:35;8.10;99.90
13231;DHT22;6681;53.254;10.398;2023-04-16T04:53:01;8.10;99.90
13231;DHT22;6681;53.254;10.398;2023-04-16T04:55:26;8.10;99.90
13231;DHT22;6681;53.254;10.398;2023-04-16T04:57:52;8.10;99.90
13231;DHT22;6681;53.254;10.398;2023-04-16T05:00:18;8.10;99.90
13231;DHT22;6681;53.254;10.398;2023-04-16T05:02:43;8.10;99.90
13231;DHT22;6681;53.254;10.398;2023-04-16T05:05:09;8.10;99.90
13231;DHT22;6681;53.254;10.398;2023-04-16T05:07:35;8.00;99.90
13231;DHT22;6681;53.254;10.398;2023-04-16T05:10:00;8.10;99.90
13231;DHT22;6681;53.254;10.398;2023-04-16T05:12:26;8.00;99.90
13231;DHT22;6681;53.254;10.398;2023-04-16T05:14:51;8.00;99.90
13231;DHT22;6681;53.254;10.398;2023-04-16T05:17:17;8.00;99.90
13231;DHT22;6681;53.254;10.398;2023-04-16T05:19:43;8.10;99.90
13231;DHT22;6681;53.254;10.398;2023-04-16T05:22:08;8.20;99.90
13231;DHT22;6681;53.254;10.398;2023-04-16T05:24:34;8.10;99.90
13231;DHT22;6681;53.254;10.398;2023-04-16T05:27:07;8.10;99.90
13231;DHT22;6681;53.254;10.398;2023-04-16T05:29:33;8.20;99.90
13231;DHT22;6681;53.254;10.398;2023-04-16T05:32:00;8.20;99.90
13231;DHT22;6681;53.254;10.398;2023-04-16T05:34:26;8.20;99.90
13231;DHT22;6681;53.254;10.398;2023-04-16T05:36:52;8.20;99.90
13231;DHT22;6681;53.254;10.398;2023-04-16T05:39:17;8.20;99.90
13231;DHT22;6681;53.254;10.398;2023-04-16T05:41:44;8.20;99.90
13231;DHT22;6681;53.254;10.398;2023-04-16T05:44:09;8.20;99.90
13231;DHT22;6681;53.254;10.398;2023-04-16T05:46:35;8.20;99.90
13231;DHT22;6681;53.254;10.398;2023-04-16T05:49:00;8.20;99.90
13231;DHT22;6681;53.254;10.398;2023-04-16T05:51:26;8.30;99.90
13231;DHT22;6681;53.254;10.398;2023-04-16T05:53:52;8.30;99.90
13231;DHT22;6681;53.254;10.398;2023-04-16T05:56:17;8.30;99.90
13231;DHT22;6681;53.254;10.398;2023-04-16T05:58:43;8.30;99.90
13231;DHT22;6681;53.254;10.398;2023-04-16T06:01:10;8.30;99.90
13231;DHT22;6681;53.254;10.398;2023-04-16T06:03:35;8.30;99.90
13231;DHT22;6681;53.254;10.398;2023-04-16T06:06:01;8.30;99.90
13231;DHT22;6681;53.254;10.398;2023-04-16T06:08:26;8.30;99.90
13231;DHT22;6681;53.254;10.398;2023-04-16T06:10:52;8.30;99.90
13231;DHT22;6681;53.254;10.398;2023-04-16T06:13:18;8.30;99.90
13231;DHT22;6681;53.254;10.398;2023-04-16T06:15:43;8.30;99.90
13231;DHT22;6681;53.254;10.398;2023-04-16T06:18:09;8.30;99.90
13231;DHT22;6681;53.254;10.398;2023-04-16T06:20:35;8.30;99.90
13231;DHT22;6681;53.254;10.398;2023-04-16T06:23:01;8.40;99.90
13231;DHT22;6681;53.254;10.398;2023-04-16T06:25:26;8.40;99.90
13231;DHT22;6681;53.254;10.398;2023-04-16T06:27:52;8.40;99.90
13231;DHT22;6681;53.254;10.398;2023-04-16T06:30:18;8.40;99.90
13231;DHT22;6681;53.254;10.398;2023-04-16T06:32:44;8.40;99.90
13231;DHT22;6681;53.254;10.398;2023-04-16T06:35:11;8.40;99.90
13231;DHT22;6681;53.254;10.398;2023-04-16T06:37:37;8.40;99.90
13231;DHT22;6681;53.254;10.398;2023-04-16T06:40:03;8.50;99.90
13231;DHT22;6681;53.254;10.398;2023-04-16T06:42:29;8.50;99.90
13231;DHT22;6681;53.254;10.398;2023-04-16T06:44:55;8.50;99.90
13231;DHT22;6681;53.254;10.398;2023-04-16T06:47:21;8.50;99.90
13231;DHT22;6681;53.254;10.398;2023-04-16T06:49:49;8.50;99.90
13231;DHT22;6681;53.254;10.398;2023-04-16T06:52:18;8.50;99.90
13231;DHT22;6681;53.254;10.398;2023-04-16T06:54:43;8.60;99.90
13231;DHT22;6681;53.254;10.398;2023-04-16T06:57:09;8.60;99.90
13231;DHT22;6681;53.254;10.398;2023-04-16T06:59:35;8.60;99.90
13231;DHT22;6681;53.254;10.398;2023-04-16T07:02:01;8.60;99.90
13231;DHT22;6681;53.254;10.398;2023-04-16T07:04:26;8.70;99.90
13231;DHT22;6681;53.254;10.398;2023-04-16T07:06:52;8.60;99.90
13231;DHT22;6681;53.254;10.398;2023-04-16T07:09:18;8.60;99.90
13231;DHT22;6681;53.254;10.398;2023-04-16T07:11:43;8.70;99.90
13231;DHT22;6681;53.254;10.398;2023-04-16T07:14:09;8.70;99.90
13231;DHT22;6681;53.254;10.398;2023-04-16T07:16:35;8.70;99.90
13231;DHT22;6681;53.254;10.398;2023-04-16T07:19:02;8.70;99.90
13231;DHT22;6681;53.254;10.398;2023-04-16T07:21:28;8.70;99.90
13231;DHT22;6681;53.254;10.398;2023-04-16T07:23:53;8.70;99.90
13231;DHT22;6681;53.254;10.398;2023-04-16T07:26:19;8.70;99.90
13231;DHT22;6681;53.254;10.398;2023-04-16T07:28:45;8.70;99.90
13231;DHT22;6681;53.254;10.398;2023-04-16T07:31:10;8.70;99.90
13231;DHT22;6681;53.254;10.398;2023-04-16T07:33:36;8.90;99.90
13231;DHT22;6681;53.254;10.398;2023-04-16T07:36:02;8.70;99.90
13231;DHT22;6681;53.254;10.398;2023-04-16T07:38:27;8.80;99.90
13231;DHT22;6681;53.254;10.398;2023-04-16T07:40:54;9.10;99.90
13231;DHT22;6681;53.254;10.398;2023-04-16T07:43:20;9.00;99.90
13231;DHT22;6681;53.254;10.398;2023-04-16T07:45:46;8.90;99.90
13231;DHT22;6681;53.254;10.398;2023-04-16T07:48:11;8.90;99.90
13231;DHT22;6681;53.254;10.398;2023-04-16T07:50:37;9.00;99.90
13231;DHT22;6681;53.254;10.398;2023-04-16T07:53:03;9.00;99.90
13231;DHT22;6681;53.254;10.398;2023-04-16T07:55:31;9.00;99.90
13231;DHT22;6681;53.254;10.398;2023-04-16T07:57:57;9.10;99.90
13231;DHT22;6681;53.254;10.398;2023-04-16T08:00:22;9.10;99.90
13231;DHT22;6681;53.254;10.398;2023-04-16T08:02:48;9.10;99.90
13231;DHT22;6681;53.254;10.398;2023-04-16T08:05:14;9.20;99.90
13231;DHT22;6681;53.254;10.398;2023-04-16T08:07:40;9.30;99.90
13231;DHT22;6681;53.254;10.398;2023-04-16T08:10:06;9.30;99.90
13231;DHT22;6681;53.254;10.398;2023-04-16T08:12:32;9.30;99.90
13231;DHT22;6681;53.254;10.398;2023-04-16T08:14:57;9.40;99.90
13231;DHT22;6681;53.254;10.398;2023-04-16T08:17:23;9.40;99.90
13231;DHT22;6681;53.254;10.398;2023-04-16T08:19:48;9.40;99.90
13231;DHT22;6681;53.254;10.398;2023-04-16T08:22:14;9.40;99.90
13231;DHT22;6681;53.254;10.398;2023-04-16T08:24:40;9.50;99.90
13231;DHT22;6681;53.254;10.398;2023-04-16T08:27:06;9.50;99.90
13231;DHT22;6681;53.254;10.398;2023-04-16T08:29:31;9.60;99.90
13231;DHT22;6681;53.254;10.398;2023-04-16T08:31:58;9.70;99.90
13231;DHT22;6681;53.254;10.398;2023-04-16T08:34:24;9.70;99.90
13231;DHT22;6681;53.254;10.398;2023-04-16T08:36:50;9.80;99.90
13231;DHT22;6681;53.254;10.398;2023-04-16T08:39:16;9.90;99.90
13231;DHT22;6681;53.254;10.398;2023-04-16T08:41:43;9.90;99.90
13231;DHT22;6681;53.254;10.398;2023-04-16T08:44:31;9.90;99.90
13231;DHT22;6681;53.254;10.398;2023-04-16T08:46:59;9.90;99.90
13231;DHT22;6681;53.254;10.398;2023-04-16T08:49:25;10.00;99.90
13231;DHT22;6681;53.254;10.398;2023-04-16T08:51:53;10.00;99.90
13231;DHT22;6681;53.254;10.398;2023-04-16T08:54:29;9.90;99.90
13231;DHT22;6681;53.254;10.398;2023-04-16T08:56:57;8.20;99.90
13231;DHT22;6681;53.254;10.398;2023-04-16T08:59:24;9.90;99.90
13231;DHT22;6681;53.254;10.398;2023-04-16T09:01:52;9.90;99.90
13231;DHT22;6681;53.254;10.398;2023-04-16T09:04:20;10.00;99.90
13231;DHT22;6681;53.254;10.398;2023-04-16T09:06:47;10.00;99.90
13231;DHT22;6681;53.254;10.398;2023-04-16T09:09:15;9.90;99.90
13231;DHT22;6681;53.254;10.398;2023-04-16T09:11:41;9.90;99.90
13231;DHT22;6681;53.254;10.398;2023-04-16T09:14:09;10.10;99.90
13231;DHT22;6681;53.254;10.398;2023-04-16T09:16:35;10.00;99.90
13231;DHT22;6681;53.254;10.398;2023-04-16T09:19:01;10.00;99.90
13231;DHT22;6681;53.254;10.398;2023-04-16T09:21:27;10.00;99.90
13231;DHT22;6681;53.254;10.398;2023-04-16T09:23:53;10.10;99.90
13231;DHT22;6681;53.254;10.398;2023-04-16T09:26:19;10.10;99.90
13231;DHT22;6681;53.254;10.398;2023-04-16T09:28:47;10.10;99.90
13231;DHT22;6681;53.254;10.398;2023-04-16T09:31:17;10.10;99.90
13231;DHT22;6681;53.254;10.398;2023-04-16T09:34:00;10.10;99.90
13231;DHT22;6681;53.254;10.398;2023-04-16T09:36:27;10.20;99.90
13231;DHT22;6681;53.254;10.398;2023-04-16T09:38:53;10.20;99.90
13231;DHT22;6681;53.254;10.398;2023-04-16T09:41:25;10.30;99.90
13231;DHT22;6681;53.254;10.398;2023-04-16T09:46:28;10.40;99.90
13231;DHT22;6681;53.254;10.398;2023-04-16T09:48:53;10.50;99.90
13231;DHT22;6681;53.254;10.398;2023-04-16T09:51:19;10.60;99.90
13231;DHT22;6681;53.254;10.398;2023-04-16T09:53:45;10.70;99.90
13231;DHT22;6681;53.254;10.398;2023-04-16T09:56:11;10.70;99.90
13231;DHT22;6681;53.254;10.398;2023-04-16T09:58:37;10.70;99.90
13231;DHT22;6681;53.254;10.398;2023-04-16T10:01:10;10.80;99.90
13231;DHT22;6681;53.254;10.398;2023-04-16T10:03:38;10.70;99.90
13231;DHT22;6681;53.254;10.398;2023-04-16T10:06:13;10.80;99.90
13231;DHT22;6681;53.254;10.398;2023-04-16T10:08:47;10.70;99.90
13231;DHT22;6681;53.254;10.398;2023-04-16T10:11:16;10.70;99.90
13231;DHT22;6681;53.254;10.398;2023-04-16T10:13:42;10.70;99.90
13231;DHT22;6681;53.254;10.398;2023-04-16T10:16:08;10.70;99.90
13231;DHT22;6681;53.254;10.398;2023-04-16T10:18:44;10.70;99.90
13231;DHT22;6681;53.254;10.398;2023-04-16T10:21:11;10.70;99.90
13231;DHT22;6681;53.254;10.398;2023-04-16T10:23:41;10.70;99.90
13231;DHT22;6681;53.254;10.398;2023-04-16T10:26:07;10.70;99.90
13231;DHT22;6681;53.254;10.398;2023-04-16T10:28:33;10.70;99.90
13231;DHT22;6681;53.254;10.398;2023-04-16T10:31:02;10.70;99.90
13231;DHT22;6681;53.254;10.398;2023-04-16T10:33:30;10.70;99.90
13231;DHT22;6681;53.254;10.398;2023-04-16T10:36:11;10.70;99.90
13231;DHT22;6681;53.254;10.398;2023-04-16T10:38:38;10.70;99.90
13231;DHT22;6681;53.254;10.398;2023-04-16T10:41:06;10.70;99.90
13231;DHT22;6681;53.254;10.398;2023-04-16T10:43:37;10.80;99.90
13231;DHT22;6681;53.254;10.398;2023-04-16T10:46:26;10.80;99.90
13231;DHT22;6681;53.254;10.398;2023-04-16T10:48:59;10.80;99.90
13231;DHT22;6681;53.254;10.398;2023-04-16T10:51:30;10.90;99.90
13231;DHT22;6681;53.254;10.398;2023-04-16T10:54:01;11.10;99.90
13231;DHT22;6681;53.254;10.398;2023-04-16T10:56:30;11.20;99.90
13231;DHT22;6681;53.254;10.398;2023-04-16T10:58:56;11.30;99.90
13231;DHT22;6681;53.254;10.398;2023-04-16T11:01:33;11.40;99.90
13231;DHT22;6681;53.254;10.398;2023-04-16T11:04:01;10.10;99.90
13231;DHT22;6681;53.254;10.398;2023-04-16T11:12:14;11.50;99.90
13231;DHT22;6681;53.254;10.398;2023-04-16T11:14:49;11.60;99.90
13231;DHT22;6681;53.254;10.398;2023-04-16T11:17:15;11.70;99.90
13231;DHT22;6681;53.254;10.398;2023-04-16T11:19:42;11.70;99.90
13231;DHT22;6681;53.254;10.398;2023-04-16T11:22:08;11.60;99.90
13231;DHT22;6681;53.254;10.398;2023-04-16T11:24:36;11.70;99.90
13231;DHT22;6681;53.254;10.398;2023-04-16T11:27:03;11.90;99.90
13231;DHT22;6681;53.254;10.398;2023-04-16T11:29:29;12.20;99.90
13231;DHT22;6681;53.254;10.398;2023-04-16T11:31:55;12.50;99.90
13231;DHT22;6681;53.254;10.398;2023-04-16T11:34:21;12.50;99.90
13231;DHT22;6681;53.254;10.398;2023-04-16T11:36:50;12.60;99.90
13231;DHT22;6681;53.254;10.398;2023-04-16T11:39:16;12.60;99.90
13231;DHT22;6681;53.254;10.398;2023-04-16T11:41:46;12.70;99.90
13231;DHT22;6681;53.254;10.398;2023-04-16T11:44:30;12.80;99.90
13231;DHT22;6681;53.254;10.398;2023-04-16T11:46:56;12.90;99.90
13231;DHT22;6681;53.254;10.398;2023-04-16T11:49:28;12.90;99.90
13231;DHT22;6681;53.254;10.398;2023-04-16T11:51:56;12.90;99.90
13231;DHT22;6681;53.254;10.398;2023-04-16T11:54:23;12.90;99.90
13231;DHT22;6681;53.254;10.398;2023-04-16T11:56:51;13.00;99.90
13231;DHT22;6681;53.254;10.398;2023-04-16T11:59:19;13.00;99.90
13231;DHT22;6681;53.254;10.398;2023-04-16T12:01:50;13.00;99.90
13231;DHT22;6681;53.254;10.398;2023-04-16T12:04:17;12.70;99.90
13231;DHT22;6681;53.254;10.398;2023-04-16T12:07:06;12.60;99.90
13231;DHT22;6681;53.254;10.398;2023-04-16T12:09:32;12.60;99.90
13231;DHT22;6681;53.254;10.398;2023-04-16T12:11:59;12.70;99.90
13231;DHT22;6681;53.254;10.398;2023-04-16T12:14:25;12.80;99.90
13231;DHT22;6681;53.254;10.398;2023-04-16T12:16:51;12.90;99.90
13231;DHT22;6681;53.254;10.398;2023-04-16T12:19:17;12.90;99.90
13231;DHT22;6681;53.254;10.398;2023-04-16T12:21:44;12.90;99.90
13231;DHT22;6681;53.254;10.398;2023-04-16T12:24:12;12.80;99.90
13231;DHT22;6681;53.254;10.398;2023-04-16T12:26:45;12.80;99.90
13231;DHT22;6681;53.254;10.398;2023-04-16T12:29:23;12.80;99.90
13231;DHT22;6681;53.254;10.398;2023-04-16T12:31:50;12.70;99.90
13231;DHT22;6681;53.254;10.398;2023-04-16T12:34:17;12.70;99.90
13231;DHT22;6681;53.254;10.398;2023-04-16T12:36:44;12.70;99.90
13231;DHT22;6681;53.254;10.398;2023-04-16T12:39:11;12.50;99.90
13231;DHT22;6681;53.254;10.398;2023-04-16T12:41:39;12.30;99.90
13231;DHT22;6681;53.254;10.398;2023-04-16T12:44:15;12.20;99.90
13231;DHT22;6681;53.254;10.398;2023-04-16T12:46:45;12.10;99.90
13231;DHT22;6681;53.254;10.398;2023-04-16T12:49:10;11.90;99.90
13231;DHT22;6681;53.254;10.398;2023-04-16T12:51:37;11.80;99.90
13231;DHT22;6681;53.254;10.398;2023-04-16T12:54:05;11.80;99.90
13231;DHT22;6681;53.254;10.398;2023-04-16T12:56:34;11.70;99.90
13231;DHT22;6681;53.254;10.398;2023-04-16T12:59:00;11.70;99.90
13231;DHT22;6681;53.254;10.398;2023-04-16T13:01:26;11.80;99.90
13231;DHT22;6681;53.254;10.398;2023-04-16T13:03:54;11.80;99.90
13231;DHT22;6681;53.254;10.398;2023-04-16T13:06:20;11.90;99.90
13231;DHT22;6681;53.254;10.398;2023-04-16T13:08:46;11.90;99.90
13231;DHT22;6681;53.254;10.398;2023-04-16T13:11:18;12.00;99.90
13231;DHT22;6681;53.254;10.398;2023-04-16T13:13:44;12.10;99.90
13231;DHT22;6681;53.254;10.398;2023-04-16T13:16:10;12.10;99.90
13231;DHT22;6681;53.254;10.398;2023-04-16T13:18:36;12.10;99.90
13231;DHT22;6681;53.254;10.398;2023-04-16T13:21:02;12.10;99.90
13231;DHT22;6681;53.254;10.398;2023-04-16T13:23:28;12.10;99.90
13231;DHT22;6681;53.254;10.398;2023-04-16T13:25:54;12.10;99.90
13231;DHT22;6681;53.254;10.398;2023-04-16T13:28:19;12.10;99.90
13231;DHT22;6681;53.254;10.398;2023-04-16T13:30:45;12.00;99.90
13231;DHT22;6681;53.254;10.398;2023-04-16T13:33:11;12.10;99.90
13231;DHT22;6681;53.254;10.398;2023-04-16T13:35:37;12.10;99.90
13231;DHT22;6681;53.254;10.398;2023-04-16T13:38:03;12.10;99.90
13231;DHT22;6681;53.254;10.398;2023-04-16T13:40:29;12.20;99.90
13231;DHT22;6681;53.254;10.398;2023-04-16T13:42:55;12.30;99.90
13231;DHT22;6681;53.254;10.398;2023-04-16T13:45:21;12.30;99.90
13231;DHT22;6681;53.254;10.398;2023-04-16T13:47:46;12.30;99.90
13231;DHT22;6681;53.254;10.398;2023-04-16T13:50:12;12.20;99.90
13231;DHT22;6681;53.254;10.398;2023-04-16T13:52:38;12.20;99.90
13231;DHT22;6681;53.254;10.398;2023-04-16T13:55:03;12.10;99.90
13231;DHT22;6681;53.254;10.398;2023-04-16T13:57:29;12.10;99.90
13231;DHT22;6681;53.254;10.398;2023-04-16T13:59:55;12.30;99.90
13231;DHT22;6681;53.254;10.398;2023-04-16T14:02:21;12.20;99.90
13231;DHT22;6681;53.254;10.398;2023-04-16T14:04:47;12.40;99.90
13231;DHT22;6681;53.254;10.398;2023-04-16T14:07:14;12.40;99.90
13231;DHT22;6681;53.254;10.398;2023-04-16T14:09:40;12.50;99.90
13231;DHT22;6681;53.254;10.398;2023-04-16T14:12:05;12.50;99.90
13231;DHT22;6681;53.254;10.398;2023-04-16T14:14:31;12.50;99.90
13231;DHT22;6681;53.254;10.398;2023-04-16T14:16:57;12.50;99.90
13231;DHT22;6681;53.254;10.398;2023-04-16T14:19:23;12.50;99.90
13231;DHT22;6681;53.254;10.398;2023-04-16T14:21:49;12.40;99.90
13231;DHT22;6681;53.254;10.398;2023-04-16T14:24:15;12.40;99.90
13231;DHT22;6681;53.254;10.398;2023-04-16T14:26:42;12.30;99.90
13231;DHT22;6681;53.254;10.398;2023-04-16T14:29:08;12.30;99.90
13231;DHT22;6681;53.254;10.398;2023-04-16T14:31:35;12.20;99.90
13231;DHT22;6681;53.254;10.398;2023-04-16T14:34:01;12.10;99.90
13231;DHT22;6681;53.254;10.398;2023-04-16T14:36:26;12.10;99.90
13231;DHT22;6681;53.254;10.398;2023-04-16T14:38:52;12.10;99.90
13231;DHT22;6681;53.254;10.398;2023-04-16T14:41:18;12.10;99.90
13231;DHT22;6681;53.254;10.398;2023-04-16T14:43:43;12.10;99.90
13231;DHT22;6681;53.254;10.398;2023-04-16T14:46:09;12.10;99.90
13231;DHT22;6681;53.254;10.398;2023-04-16T14:48:35;12.10;99.90
13231;DHT22;6681;53.254;10.398;2023-04-16T14:51:01;12.10;99.90
13231;DHT22;6681;53.254;10.398;2023-04-16T14:53:26;12.00;99.90
13231;DHT22;6681;53.254;10.398;2023-04-16T14:55:53;12.00;99.90
13231;DHT22;6681;53.254;10.398;2023-04-16T14:58:22;12.00;99.90
13231;DHT22;6681;53.254;10.398;2023-04-16T15:00:48;12.00;99.90
13231;DHT22;6681;53.254;10.398;2023-04-16T15:03:13;12.10;99.90
13231;DHT22;6681;53.254;10.398;2023-04-16T15:05:39;12.10;99.90
13231;DHT22;6681;53.254;10.398;2023-04-16T15:08:05;12.10;99.90
13231;DHT22;6681;53.254;10.398;2023-04-16T15:10:31;12.10;99.90
13231;DHT22;6681;53.254;10.398;2023-04-16T15:12:57;12.10;99.90
13231;DHT22;6681;53.254;10.398;2023-04-16T15:15:23;12.10;99.90
13231;DHT22;6681;53.254;10.398;2023-04-16T15:17:49;12.10;99.90
13231;DHT22;6681;53.254;10.398;2023-04-16T15:20:15;12.10;99.90
13231;DHT22;6681;53.254;10.398;2023-04-16T15:22:41;12.00;99.90
13231;DHT22;6681;53.254;10.398;2023-04-16T15:25:07;12.00;99.90
13231;DHT22;6681;53.254;10.398;2023-04-16T15:27:32;11.90;99.90
13231;DHT22;6681;53.254;10.398;2023-04-16T15:29:58;11.80;99.90
13231;DHT22;6681;53.254;10.398;2023-04-16T15:32:24;11.70;99.90
13231;DHT22;6681;53.254;10.398;2023-04-16T15:34:49;11.70;99.90
13231;DHT22;6681;53.254;10.398;2023-04-16T15:37:15;11.70;99.90
13231;DHT22;6681;53.254;10.398;2023-04-16T15:39:41;11.70;99.90
13231;DHT22;6681;53.254;10.398;2023-04-16T15:42:07;11.70;99.90
13231;DHT22;6681;53.254;10.398;2023-04-16T15:44:33;11.70;99.90